Time;durP1;ratioP1;P1;durP2;ratioP2;P2;SDS_P1;SDS_P2;PMS_P1;PMS_P2;Temp;Humidity;BMP_temperature;BMP_pressure;BME280_temperature;BME280_humidity;BME280_pressure;Samples;Min_cycle;Max_cycle;Signal;HPM_P1;HPM_P2
2021/11/06 00:03:17;;;;;;;9.98;9.10;;;;;;;6.49;85.89;101061.13;10528884;28;20048;-76
2021/11/06 00:08:19;;;;;;;9.10;8.20;;;;;;;6.50;85.37;101062.00;10545541;28;20044;-76
2021/11/06 00:13:21;;;;;;;9.80;8.80;;;;;;;6.49;85.72;101058.50;10545563;28;20123;-76
2021/11/06 00:18:22;;;;;;;8.98;8.18;;;;;;;6.51;85.33;101063.75;10527207;28;20448;-76
2021/11/06 00:23:24;;;;;;;9.07;8.18;;;;;;;6.45;85.35;101066.34;10542802;28;20463;-76
2021/11/06 00:28:29;;;;;;;8.77;7.97;;;;;;;6.49;84.92;101066.34;10526306;28;20059;-75
2021/11/06 00:33:31;;;;;;;9.65;8.73;;;;;;;6.50;84.83;101064.59;10542922;28;20036;-77
2021/11/06 00:38:32;;;;;;;9.63;8.82;;;;;;;6.41;85.32;101057.63;10542765;28;20486;-76
2021/11/06 00:43:34;;;;;;;9.05;8.18;;;;;;;6.38;85.31;101062.88;10542817;28;20413;-75
2021/11/06 00:48:36;;;;;;;10.10;8.43;;;;;;;6.29;86.48;101068.94;10542657;28;20056;-77
2021/11/06 00:53:37;;;;;;;8.90;8.05;;;;;;;6.35;86.07;101072.44;10542178;28;20051;-75
2021/11/06 00:58:39;;;;;;;8.65;7.90;;;;;;;6.39;85.80;101075.03;10542008;28;20436;-76
2021/11/06 01:03:40;;;;;;;10.00;7.95;;;;;;;6.51;85.44;101082.03;10542292;28;20044;-76
2021/11/06 01:08:43;;;;;;;8.27;7.50;;;;;;;6.71;83.94;101080.31;10542995;28;20161;-76
2021/11/06 01:13:44;;;;;;;8.73;7.93;;;;;;;6.68;84.23;101075.06;10542270;28;20054;-76
2021/11/06 01:18:46;;;;;;;8.35;7.55;;;;;;;6.68;83.96;101077.69;10541108;28;20044;-75
2021/11/06 01:23:48;;;;;;;9.13;8.05;;;;;;;6.85;83.00;101079.44;10541229;28;20051;-75
2021/11/06 01:28:50;;;;;;;6.50;5.85;;;;;;;6.96;82.01;101075.09;10523288;28;20094;-75
2021/11/06 01:33:51;;;;;;;6.80;6.15;;;;;;;6.98;82.12;101073.34;10540792;28;20048;-76
2021/11/06 01:38:53;;;;;;;7.70;7.00;;;;;;;7.00;82.14;101072.47;10540417;28;20075;-75
2021/11/06 01:43:55;;;;;;;7.53;6.82;;;;;;;7.12;81.35;101068.09;10505584;28;20067;-76
2021/11/06 01:48:57;;;;;;;8.07;6.88;;;;;;;7.11;81.24;101061.13;10539898;28;20059;-76
2021/11/06 01:53:59;;;;;;;8.52;6.68;;;;;;;7.19;80.87;101065.47;10539781;28;20055;-76
2021/11/06 01:59:00;;;;;;;7.30;6.60;;;;;;;7.16;81.18;101064.59;10540233;28;20040;-76
2021/11/06 02:04:03;;;;;;;10.13;6.30;;;;;;;7.06;81.68;101062.00;10539691;28;20040;-75
2021/11/06 02:09:05;;;;;;;8.60;7.82;;;;;;;7.13;81.97;101061.97;10522218;28;20051;-76
2021/11/06 02:14:06;;;;;;;7.55;6.88;;;;;;;7.17;81.07;101059.41;10547537;28;20044;-75
2021/11/06 02:19:08;;;;;;;6.85;6.15;;;;;;;7.21;81.20;101068.06;10547064;28;20044;-76
2021/11/06 02:24:10;;;;;;;6.65;5.90;;;;;;;7.34;80.27;101070.66;10547442;28;20040;-76
2021/11/06 02:29:12;;;;;;;7.10;6.40;;;;;;;7.30;80.13;101078.53;10547227;28;20040;-76
2021/11/06 02:34:14;;;;;;;7.03;6.32;;;;;;;7.39;79.73;101083.72;10547347;28;20408;-75
2021/11/06 02:39:16;;;;;;;7.03;6.20;;;;;;;7.42;79.38;101082.88;10547541;28;20039;-76
2021/11/06 02:44:17;;;;;;;7.03;5.95;;;;;;;7.38;79.76;101092.47;10512059;28;20044;-75
2021/11/06 02:49:19;;;;;;;7.35;6.65;;;;;;;7.40;79.71;101095.97;10546375;28;20070;-76
2021/11/06 02:54:21;;;;;;;9.75;7.22;;;;;;;7.42;79.57;101106.41;10545772;28;20101;-76
2021/11/06 02:59:23;;;;;;;7.00;6.32;;;;;;;7.42;79.29;101104.66;10546257;28;20044;-75
2021/11/06 03:04:24;;;;;;;9.35;7.00;;;;;;;7.42;79.15;101109.91;10545419;28;20056;-75
2021/11/06 03:09:26;;;;;;;8.65;7.35;;;;;;;7.41;79.30;101108.16;10545697;28;20048;-75
2021/11/06 03:14:28;;;;;;;9.10;6.82;;;;;;;7.35;79.85;101116.03;10545184;28;20121;-75
2021/11/06 03:19:31;;;;;;;7.28;6.60;;;;;;;7.32;79.76;101116.88;10545029;28;20481;-75
2021/11/06 03:24:33;;;;;;;8.05;7.25;;;;;;;7.31;79.96;101117.78;10543933;28;20054;-75
2021/11/06 03:29:36;;;;;;;10.38;7.65;;;;;;;7.32;79.55;101116.03;10544671;28;20098;-74
2021/11/06 03:34:38;;;;;;;7.90;7.10;;;;;;;7.40;79.45;101126.50;10510727;28;20106;-76
2021/11/06 03:39:39;;;;;;;9.07;7.50;;;;;;;7.37;79.24;101132.56;10509937;28;20401;-75
2021/11/06 03:44:42;;;;;;;10.30;8.13;;;;;;;7.39;79.40;101129.94;10525953;28;20102;-75
2021/11/06 03:49:43;;;;;;;8.90;8.05;;;;;;;7.40;79.45;101134.34;10543834;28;20086;-75
2021/11/06 03:54:45;;;;;;;11.63;8.57;;;;;;;7.45;78.92;101137.81;10543107;28;20505;-75
2021/11/06 03:59:46;;;;;;;10.02;9.00;;;;;;;7.36;79.49;101146.53;10525221;28;20332;-75
2021/11/06 04:04:48;;;;;;;9.70;8.85;;;;;;;7.35;79.16;101134.34;10543075;28;20051;-75
2021/11/06 04:09:50;;;;;;;10.15;9.15;;;;;;;7.34;79.52;101156.13;10524671;28;20048;-75
2021/11/06 04:14:52;;;;;;;11.13;9.73;;;;;;;7.33;79.59;101157.00;10543061;28;20047;-75
2021/11/06 04:19:53;;;;;;;9.52;8.63;;;;;;;7.32;79.25;101153.50;10525171;28;20044;-75
2021/11/06 04:24:55;;;;;;;9.25;8.32;;;;;;;7.31;79.18;101150.91;10542385;28;20090;-75
2021/11/06 04:29:56;;;;;;;8.55;7.72;;;;;;;7.36;78.92;101154.38;10542295;28;20044;-74
2021/11/06 04:34:58;;;;;;;9.07;8.25;;;;;;;7.28;79.12;101154.38;10543593;28;20366;-74
2021/11/06 04:39:59;;;;;;;9.60;8.70;;;;;;;7.08;79.63;101159.63;10542213;28;20055;-76
2021/11/06 04:45:01;;;;;;;8.95;8.10;;;;;;;6.98;80.23;101162.22;10523235;28;20113;-74
2021/11/06 04:50:05;;;;;;;9.45;8.65;;;;;;;6.83;80.73;101168.31;10541511;28;20443;-75
2021/11/06 04:55:15;;;;;;;9.52;8.73;;;;;;;6.82;80.46;101179.63;10541141;28;20048;-76
2021/11/06 05:00:17;;;;;;;9.57;8.77;;;;;;;6.75;80.85;101170.91;10541358;28;20032;-74
2021/11/06 05:05:19;;;;;;;11.30;10.20;;;;;;;6.64;81.05;101179.56;10541202;28;20115;-74
2021/11/06 05:10:20;;;;;;;11.02;10.02;;;;;;;6.61;80.89;101179.59;10522806;28;20043;-74
2021/11/06 05:15:22;;;;;;;11.18;10.07;;;;;;;6.57;81.17;101168.25;10540517;28;20044;-75
2021/11/06 05:20:24;;;;;;;10.25;9.35;;;;;;;6.55;81.05;101165.63;10541200;28;20040;-75
2021/11/06 05:25:25;;;;;;;10.35;9.45;;;;;;;6.49;81.60;101175.19;10521909;28;20059;-75
2021/11/06 05:30:27;;;;;;;10.23;9.23;;;;;;;6.61;80.73;101171.75;10539827;28;20059;-76
2021/11/06 05:35:29;;;;;;;10.70;9.65;;;;;;;6.45;81.81;101182.13;10522073;28;20066;-75
2021/11/06 05:40:31;;;;;;;10.65;9.55;;;;;;;6.33;82.25;101179.50;10540379;28;20490;-75
2021/11/06 05:45:33;;;;;;;12.35;11.30;;;;;;;6.30;82.40;101174.25;10543376;28;20052;-74
2021/11/06 05:50:35;;;;;;;12.98;11.77;;;;;;;6.26;82.64;101177.72;10548575;28;20044;-74
2021/11/06 05:55:37;;;;;;;13.20;11.90;;;;;;;6.11;83.30;101186.38;10530006;28;20090;-74
2021/11/06 06:00:40;;;;;;;13.63;12.35;;;;;;;6.06;83.72;101193.28;10529788;28;20048;-74
2021/11/06 06:05:42;;;;;;;14.63;13.18;;;;;;;6.19;83.02;101196.81;10547578;28;20561;-74
2021/11/06 06:10:44;;;;;;;13.93;12.23;;;;;;;6.18;83.12;101190.72;10547671;28;20050;-74
2021/11/06 06:15:45;;;;;;;14.93;13.38;;;;;;;6.12;83.13;101188.09;10547614;28;20453;-74
2021/11/06 06:20:47;;;;;;;13.23;12.02;;;;;;;6.08;83.12;101194.16;10529234;28;20047;-74
2021/11/06 06:25:49;;;;;;;14.18;12.95;;;;;;;6.00;83.72;101198.47;10547169;28;20098;-75
2021/11/06 06:30:51;;;;;;;13.15;11.85;;;;;;;6.00;83.86;101194.13;10547472;28;20051;-74
2021/11/06 06:35:53;;;;;;;13.80;12.50;;;;;;;6.11;83.41;101198.50;10530106;28;20047;-74
2021/11/06 06:40:55;;;;;;;13.75;12.38;;;;;;;6.23;82.16;101206.41;10550963;28;20089;-74
2021/11/06 06:45:56;;;;;;;15.10;13.50;;;;;;;6.06;83.11;101209.84;10530173;28;20550;-74
2021/11/06 06:50:58;;;;;;;13.73;12.38;;;;;;;6.18;82.65;101219.44;10529907;28;20040;-74
2021/11/06 06:56:00;;;;;;;13.68;12.27;;;;;;;6.27;82.16;101232.53;10530975;28;20044;-77
2021/11/06 07:01:02;;;;;;;13.07;11.52;;;;;;;6.32;81.71;101225.59;10548164;28;20040;-74
2021/11/06 07:06:03;;;;;;;12.68;11.50;;;;;;;6.21;82.32;101234.28;10529051;28;20496;-74
2021/11/06 07:11:05;;;;;;;13.15;11.90;;;;;;;6.18;82.35;101234.25;10548140;28;20401;-74
2021/11/06 07:16:07;;;;;;;12.45;11.27;;;;;;;6.22;82.34;101236.00;10547404;28;20098;-74
2021/11/06 07:21:09;;;;;;;12.65;11.52;;;;;;;6.42;81.18;101239.59;10548630;28;20493;-74
2021/11/06 07:26:11;;;;;;;12.35;11.30;;;;;;;6.43;80.85;101246.56;10546154;28;20485;-75
2021/11/06 07:31:14;;;;;;;11.85;10.85;;;;;;;6.69;79.64;101243.19;10546780;28;20048;-73
2021/11/06 07:36:16;;;;;;;12.13;11.00;;;;;;;6.64;80.52;101242.28;10546732;28;20051;-74
2021/11/06 07:41:17;;;;;;;12.35;11.23;;;;;;;6.69;80.35;101240.56;10545739;28;20068;-74
2021/11/06 07:46:19;;;;;;;11.80;10.82;;;;;;;6.98;79.35;101249.34;10545906;28;20044;-74
2021/11/06 07:51:22;;;;;;;11.68;10.65;;;;;;;7.07;78.97;101249.38;10545485;28;20502;-74
2021/11/06 07:56:24;;;;;;;11.25;10.30;;;;;;;7.25;78.24;101248.53;10545263;28;20086;-74
2021/11/06 08:01:29;;;;;;;11.82;10.82;;;;;;;7.33;78.22;101248.53;10510993;28;20063;-74
2021/11/06 08:06:31;;;;;;;11.55;10.63;;;;;;;7.58;76.99;101236.34;10545520;28;20406;-74
2021/11/06 08:11:33;;;;;;;11.38;10.30;;;;;;;7.75;75.47;101234.59;10544268;28;20494;-75
2021/11/06 08:16:34;;;;;;;10.80;9.90;;;;;;;7.89;75.36;101246.78;10543657;28;20044;-74
2021/11/06 08:21:36;;;;;;;11.88;10.82;;;;;;;7.97;74.41;101250.25;10545452;28;20044;-74
2021/11/06 08:26:38;;;;;;;12.65;11.35;;;;;;;8.11;74.08;101256.34;10544307;28;20489;-75
2021/11/06 08:31:40;;;;;;;10.90;10.00;;;;;;;8.08;74.15;101256.34;10509077;28;20432;-75
2021/11/06 08:36:42;;;;;;;10.25;9.35;;;;;;;8.11;74.11;101253.75;10542627;28;20382;-74
2021/11/06 08:41:43;;;;;;;10.13;9.23;;;;;;;8.21;73.06;101254.59;10542985;28;20040;-75
2021/11/06 08:46:48;;;;;;;10.73;9.65;;;;;;;8.12;74.56;101254.59;10524040;28;20102;-74
2021/11/06 08:51:55;;;;;;;10.88;9.07;;;;;;;8.54;71.56;101251.00;10525022;28;20039;-74
2021/11/06 08:57:00;;;;;;;9.80;8.30;;;;;;;8.59;70.92;101251.88;10543186;28;20439;-75
2021/11/06 09:02:02;;;;;;;7.93;7.22;;;;;;;8.80;69.45;101250.88;10541988;28;20036;-76
2021/11/06 09:07:04;;;;;;;7.90;7.18;;;;;;;8.80;69.04;101249.13;10523750;28;20070;-75
2021/11/06 09:12:07;;;;;;;7.90;7.13;;;;;;;8.97;68.81;101246.41;10522942;28;20078;-74
2021/11/06 09:17:09;;;;;;;7.72;7.03;;;;;;;8.98;69.02;101242.91;10522127;28;20067;-76
2021/11/06 09:22:10;;;;;;;7.50;6.90;;;;;;;9.19;67.84;101243.66;10540515;28;20067;-74
2021/11/06 09:27:12;;;;;;;8.35;7.60;;;;;;;9.13;68.32;101244.59;10540857;28;20052;-75
2021/11/06 09:32:14;;;;;;;7.78;7.20;;;;;;;9.10;68.95;101239.34;10521893;28;20048;-74
2021/11/06 09:37:15;;;;;;;11.90;7.50;;;;;;;9.16;68.76;101243.69;10539772;28;20052;-74
2021/11/06 09:42:17;;;;;;;8.02;7.30;;;;;;;9.11;69.43;101246.34;10539968;28;20048;-74
2021/11/06 09:47:20;;;;;;;8.95;8.00;;;;;;;9.23;69.65;101246.25;10539946;28;20118;-76
2021/11/06 09:52:22;;;;;;;8.50;7.70;;;;;;;9.46;68.31;101243.47;10521424;28;20056;-74
2021/11/06 09:57:24;;;;;;;8.38;7.63;;;;;;;9.60;67.71;101257.34;10539890;28;20040;-76
2021/11/06 10:02:25;;;;;;;6.20;5.70;;;;;;;9.80;65.48;101254.56;10539798;28;20109;-74
2021/11/06 10:07:27;;;;;;;6.65;6.05;;;;;;;9.60;66.95;101246.84;10539597;28;20075;-74
2021/11/06 10:12:54;;;;;;;7.70;7.03;;;;;;;9.63;66.64;101240.69;10522607;28;20047;-74
2021/11/06 10:17:55;;;;;;;6.90;6.18;;;;;;;9.69;66.61;101242.41;10539461;28;20052;-75
2021/11/06 10:23:01;;;;;;;6.43;5.78;;;;;;;9.74;65.70;101237.97;10539319;28;20047;-75
2021/11/06 10:28:09;;;;;;;6.45;5.85;;;;;;;10.15;64.18;101213.94;10539214;28;20044;-76
2021/11/06 10:33:14;;;;;;;6.25;4.72;;;;;;;10.46;62.08;101200.47;10545617;28;20097;-76
2021/11/06 10:38:21;;;;;;;5.75;5.00;;;;;;;10.91;62.06;101198.94;10546888;28;20412;-75
2021/11/06 10:43:25;;;;;;;5.72;5.22;;;;;;;11.47;58.98;101191.94;10547714;28;20421;-74
2021/11/06 10:48:35;;;;;;;5.22;4.68;;;;;;;11.51;56.53;101182.19;10529440;28;20043;-77
2021/11/06 10:53:44;;;;;;;5.32;4.35;;;;;;;11.58;56.60;101187.34;10547862;28;20040;-74
2021/11/06 10:58:52;;;;;;;5.75;4.65;;;;;;;11.63;57.83;101188.13;10547790;28;20051;-74
2021/11/06 11:04:08;;;;;;;5.35;4.38;;;;;;;11.91;54.63;101171.88;10547229;28;20051;-76
2021/11/06 11:09:33;;;;;;;4.85;4.30;;;;;;;12.17;54.83;101181.00;10546351;28;20044;-75
2021/11/06 11:14:35;;;;;;;4.38;3.97;;;;;;;11.78;55.38;101175.59;10546474;28;20453;-75
2021/11/06 11:19:43;;;;;;;4.90;3.85;;;;;;;11.97;54.35;101179.63;10545579;28;20048;-75
2021/11/06 11:24:47;;;;;;;4.15;3.45;;;;;;;11.47;54.72;101178.78;10546981;28;20068;-75
2021/11/06 11:29:57;;;;;;;3.90;3.53;;;;;;;11.30;56.23;101179.06;10545545;28;20405;-77
2021/11/06 11:34:59;;;;;;;4.18;3.72;;;;;;;11.52;57.23;101176.06;10545868;28;20074;-76
2021/11/06 11:40:03;;;;;;;5.57;3.22;;;;;;;11.71;56.05;101172.19;10546311;28;20040;-74
2021/11/06 11:45:30;;;;;;;4.88;3.25;;;;;;;11.44;54.33;101170.06;10544402;28;20524;-75
2021/11/06 11:50:35;;;;;;;;;;;;;;;10.92;56.37;101171.75;10546256;28;20047;-74
2021/11/06 11:55:44;;;;;;;3.75;2.88;;;;;;;11.26;55.78;101165.97;10544341;28;19923;-75
2021/11/06 12:00:47;;;;;;;3.70;2.78;;;;;;;11.19;55.10;101148.53;10545109;28;20089;-75
2021/11/06 12:05:49;;;;;;;4.53;3.10;;;;;;;11.24;55.08;101157.22;10545201;28;20055;-74
2021/11/06 12:10:58;;;;;;;3.65;2.83;;;;;;;11.02;56.13;101160.22;10543974;28;20040;-74
2021/11/06 12:16:09;;;;;;;3.97;3.60;;;;;;;10.96;55.88;101154.16;10543046;28;20044;-74
2021/11/06 12:26:22;;;;;;;3.33;3.13;;;;;;;10.58;59.33;101145.97;10544031;28;20047;-74
2021/11/06 12:31:38;;;;;;;3.78;3.47;;;;;;;10.35;59.81;101133.09;10543099;28;20083;-75
2021/11/06 12:36:41;;;;;;;4.10;3.78;;;;;;;10.30;60.00;101134.06;10545161;28;20044;-74
2021/11/06 12:41:43;;;;;;;4.50;4.07;;;;;;;10.27;60.41;101129.75;10543617;28;20520;-74
2021/11/06 12:46:45;;;;;;;4.88;4.32;;;;;;;10.28;60.82;101114.84;10543052;28;20079;-75
2021/11/06 12:51:47;;;;;;;4.50;4.20;;;;;;;10.22;60.91;101105.22;10542575;28;20043;-73
2021/11/06 12:56:53;;;;;;;5.55;3.75;;;;;;;10.21;59.92;101094.72;10544653;28;20401;-75
2021/11/06 13:02:00;;;;;;;4.63;4.22;;;;;;;10.24;60.03;101092.06;10546195;28;20047;-75
2021/11/06 13:07:03;;;;;;;4.43;4.03;;;;;;;10.25;60.07;101085.97;10529753;28;20044;-74
2021/11/06 13:12:12;;;;;;;5.28;4.40;;;;;;;10.17;60.24;101093.91;10542004;28;20440;-73
2021/11/06 13:17:25;;;;;;;5.80;5.05;;;;;;;10.06;60.54;101078.28;10546463;28;20036;-74
2021/11/06 13:22:26;;;;;;;5.32;4.82;;;;;;;9.92;60.87;101082.84;10543247;28;20059;-74
2021/11/06 13:27:49;;;;;;;4.88;4.47;;;;;;;9.97;60.93;101082.81;10523471;28;20043;-75
2021/11/06 13:33:00;;;;;;;5.88;4.65;;;;;;;10.09;60.28;101075.63;10541134;28;20101;-75
2021/11/06 13:38:30;;;;;;;5.55;4.93;;;;;;;10.00;61.47;101073.09;10541430;28;20044;-74
2021/11/06 13:43:41;;;;;;;5.80;4.95;;;;;;;9.93;62.11;101071.47;10542139;28;20443;-73
2021/11/06 13:48:55;;;;;;;4.75;4.28;;;;;;;10.04;61.28;101066.06;10523184;28;20044;-72
2021/11/06 13:54:18;;;;;;;5.25;4.85;;;;;;;10.14;60.65;101066.78;10539933;28;20402;-73
2021/11/06 13:59:25;;;;;;;5.43;4.72;;;;;;;10.17;60.24;101049.22;10542940;28;20097;-72
2021/11/06 14:04:27;;;;;;;5.30;4.78;;;;;;;10.13;61.39;101042.28;10542913;28;20052;-74
2021/11/06 14:09:30;;;;;;;5.10;4.60;;;;;;;10.19;59.82;101043.97;10548136;28;20409;-71
2021/11/06 14:14:53;;;;;;;5.22;4.82;;;;;;;10.09;61.05;101030.06;10530550;28;20525;-73
2021/11/06 14:20:00;;;;;;;5.03;4.63;;;;;;;10.03;61.11;101024.91;10547215;28;20036;-74
2021/11/06 14:25:04;;;;;;;5.47;4.97;;;;;;;9.84;62.42;101024.31;10547071;28;20040;-74
2021/11/06 14:30:12;;;;;;;5.38;4.88;;;;;;;9.85;61.49;101012.91;10546687;28;20043;-74
2021/11/06 14:35:14;;;;;;;7.35;5.15;;;;;;;9.79;61.54;101010.38;10547995;28;20059;-72
2021/11/06 14:40:15;;;;;;;4.43;4.03;;;;;;;9.70;61.83;101000.00;10528591;28;20052;-71
2021/11/06 14:45:22;;;;;;;4.95;4.55;;;;;;;9.60;62.29;100994.81;10546841;28;20044;-72
2021/11/06 14:50:24;;;;;;;5.15;4.75;;;;;;;9.62;62.16;100996.59;10528459;28;20042;-71
2021/11/06 14:55:26;;;;;;;5.10;4.70;;;;;;;9.65;61.92;100992.16;10546375;28;20052;-72
2021/11/06 15:00:39;;;;;;;5.10;4.65;;;;;;;9.53;61.71;100987.06;10546584;28;20489;-71
2021/11/06 15:05:44;;;;;;;4.60;4.20;;;;;;;9.44;62.42;100976.69;10545157;28;20048;-71
2021/11/06 15:10:51;;;;;;;4.68;4.28;;;;;;;9.25;63.30;100976.00;10546379;28;20132;-70
2021/11/06 15:15:54;;;;;;;5.00;4.30;;;;;;;9.27;63.25;100979.50;10544498;28;20093;-71
2021/11/06 15:21:01;;;;;;;4.35;4.03;;;;;;;9.04;64.86;100969.25;10543185;28;20072;-71
2021/11/06 15:26:03;;;;;;;4.22;3.83;;;;;;;9.05;63.88;100966.63;10543536;28;20046;-71
2021/11/06 15:31:04;;;;;;;4.40;4.00;;;;;;;9.07;63.78;100969.22;10525130;28;20066;-72
2021/11/06 15:36:06;;;;;;;7.55;4.20;;;;;;;9.00;63.82;100963.19;10545375;28;20051;-71
2021/11/06 15:41:08;;;;;;;5.10;4.57;;;;;;;8.68;65.46;100968.75;10544289;28;20052;-71
2021/11/06 15:46:09;;;;;;;5.43;4.75;;;;;;;8.53;65.82;100968.84;10543352;28;20394;-72
2021/11/06 15:51:23;;;;;;;4.55;4.22;;;;;;;8.45;65.95;100971.53;10543631;28;20040;-71
2021/11/06 15:56:24;;;;;;;4.88;4.47;;;;;;;8.38;66.35;100964.63;10526809;28;20097;-71
2021/11/06 16:01:27;;;;;;;5.45;4.93;;;;;;;8.26;67.08;100965.53;10526995;28;20040;-71
2021/11/06 16:06:29;;;;;;;6.18;5.68;;;;;;;8.13;67.58;100958.66;10544533;28;20112;-71
2021/11/06 16:11:31;;;;;;;6.57;5.97;;;;;;;8.11;67.60;100972.66;10544003;28;20051;-71
2021/11/06 16:16:36;;;;;;;6.22;5.68;;;;;;;7.90;68.63;100964.03;10544055;28;20036;-71
2021/11/06 16:21:37;;;;;;;7.68;6.97;;;;;;;7.67;69.53;100960.69;10543597;28;20160;-71
2021/11/06 16:26:39;;;;;;;8.13;7.00;;;;;;;7.45;70.11;100963.41;10543047;28;20105;-72
2021/11/06 16:31:41;;;;;;;7.32;6.72;;;;;;;7.53;70.09;100961.63;10524280;28;20040;-73
2021/11/06 16:36:43;;;;;;;7.60;6.90;;;;;;;7.39;70.19;100958.19;10524166;28;20363;-70
2021/11/06 16:41:44;;;;;;;7.32;6.65;;;;;;;7.35;70.18;100956.47;10542871;28;20044;-71
2021/11/06 16:46:46;;;;;;;7.40;6.45;;;;;;;7.30;70.62;100950.38;10542920;28;20044;-72
2021/11/06 16:51:48;;;;;;;7.07;6.38;;;;;;;7.23;70.79;100948.66;10542122;28;20041;-71
2021/11/06 16:56:49;;;;;;;7.70;7.10;;;;;;;7.20;70.01;100946.91;10524553;28;20097;-73
2021/11/06 17:01:51;;;;;;;7.05;6.35;;;;;;;7.25;69.82;100950.38;10542264;28;20464;-71
2021/11/06 17:06:54;;;;;;;7.47;6.78;;;;;;;7.18;70.02;100948.69;10523147;28;20051;-71
2021/11/06 17:11:57;;;;;;;7.70;6.90;;;;;;;7.26;69.51;100946.03;10523112;28;20043;-73
2021/11/06 17:16:58;;;;;;;7.95;7.25;;;;;;;7.21;69.26;100943.44;10541284;28;20114;-71
2021/11/06 17:22:00;;;;;;;8.20;7.50;;;;;;;7.20;69.06;100952.16;10540679;28;20055;-72
2021/11/06 17:27:04;;;;;;;8.57;7.80;;;;;;;7.22;69.11;100946.94;10541300;28;20048;-70
2021/11/06 17:32:07;;;;;;;8.25;7.55;;;;;;;7.21;68.98;100947.78;10485658;22;20519;-70
2021/11/06 17:37:09;;;;;;;7.72;7.13;;;;;;;7.23;68.69;100940.81;10440289;28;20053;-70
2021/11/06 17:42:10;;;;;;;7.68;7.07;;;;;;;7.07;69.26;100947.84;10456136;28;20452;-71
2021/11/06 17:47:12;;;;;;;8.13;6.90;;;;;;;7.01;69.71;100942.63;10458176;28;20128;-71
2021/11/06 17:52:21;;;;;;;7.22;6.60;;;;;;;6.97;69.70;100933.06;10457829;28;20120;-73
2021/11/06 17:57:23;;;;;;;6.82;6.32;;;;;;;6.91;69.69;100931.34;10458972;28;20037;-72
2021/11/06 18:02:27;;;;;;;7.72;7.07;;;;;;;6.70;70.74;100937.47;10438803;28;20041;-74
2021/11/06 18:07:29;;;;;;;8.07;7.38;;;;;;;6.77;70.09;100935.69;10439405;28;20068;-74
2021/11/06 18:12:30;;;;;;;7.85;7.15;;;;;;;6.74;70.06;100928.75;10456944;28;20134;-73
2021/11/06 18:17:32;;;;;;;8.77;7.88;;;;;;;6.68;70.25;100920.03;10439845;28;20045;-72
2021/11/06 18:22:34;;;;;;;8.77;8.07;;;;;;;6.53;70.78;100920.94;10458168;28;20045;-71
2021/11/06 18:27:36;;;;;;;8.32;7.63;;;;;;;6.45;70.89;100912.25;10457832;28;20132;-72
2021/11/06 18:32:38;;;;;;;9.25;8.55;;;;;;;6.45;70.65;100915.72;10441041;28;20107;-71
2021/11/06 18:37:40;;;;;;;9.52;8.63;;;;;;;6.51;70.26;100910.50;10459048;28;20041;-72
2021/11/06 18:42:42;;;;;;;9.05;8.27;;;;;;;6.49;69.97;100907.00;10440594;28;20049;-71
2021/11/06 18:47:49;;;;;;;8.68;7.97;;;;;;;6.46;69.97;100909.66;10459213;28;20079;-70
2021/11/06 18:52:51;;;;;;;8.98;8.23;;;;;;;6.43;69.86;100898.34;10461705;28;20067;-72
2021/11/06 18:57:58;;;;;;;9.48;8.73;;;;;;;6.43;69.99;100893.09;10448611;28;20390;-72
2021/11/06 19:03:00;;;;;;;;;;;;;;;6.40;70.03;100883.53;10466884;28;20049;-72
2021/11/06 19:08:05;;;;;;;8.82;8.02;;;;;;;6.38;69.56;100877.44;10449131;28;19921;-72
2021/11/06 19:13:07;;;;;;;8.82;8.02;;;;;;;6.18;70.95;100882.66;10445564;28;20072;-72
2021/11/06 19:18:08;;;;;;;8.50;7.70;;;;;;;6.21;70.50;100874.84;10443283;28;20180;-72
2021/11/06 19:23:10;;;;;;;8.13;7.43;;;;;;;6.17;70.49;100877.47;10426317;28;20055;-72
2021/11/06 19:28:11;;;;;;;8.60;7.85;;;;;;;6.02;71.07;100868.75;10460257;28;20060;-72
2021/11/06 19:33:13;;;;;;;8.38;7.68;;;;;;;6.00;71.16;100867.00;10459945;28;20045;-72
2021/11/06 19:38:15;;;;;;;7.97;7.22;;;;;;;6.10;70.86;100854.81;10442708;28;20095;-72
2021/11/06 19:43:21;;;;;;;9.00;8.20;;;;;;;6.02;70.71;100850.50;10441574;28;20125;-72
2021/11/06 19:48:22;;;;;;;8.85;8.05;;;;;;;6.16;70.08;100849.63;10457534;28;20056;-71
2021/11/06 19:53:24;;;;;;;8.07;7.38;;;;;;;6.02;70.63;100841.78;10457809;28;20048;-71
2021/11/06 19:58:26;;;;;;;9.45;8.48;;;;;;;5.86;71.34;100840.88;10459621;28;20449;-71
2021/11/06 20:03:28;;;;;;;8.30;7.57;;;;;;;5.96;70.78;100841.78;10441291;28;20051;-72
2021/11/06 20:08:32;;;;;;;6.93;6.35;;;;;;;6.02;70.45;100834.84;10459202;28;20128;-72
2021/11/06 20:13:39;;;;;;;7.47;6.78;;;;;;;6.16;69.62;100831.34;10441474;28;20072;-72
2021/11/06 20:18:41;;;;;;;7.38;6.65;;;;;;;6.14;69.93;100826.09;10441434;28;20479;-72
2021/11/06 20:23:43;;;;;;;7.93;7.13;;;;;;;6.17;69.33;100817.41;10440830;28;20060;-73
2021/11/06 20:28:45;;;;;;;7.78;7.03;;;;;;;6.03;70.08;100813.09;10458665;28;20073;-73
2021/11/06 20:33:48;;;;;;;7.38;6.78;;;;;;;6.12;69.73;100806.97;10459013;28;20041;-72
2021/11/06 20:38:51;;;;;;;8.65;6.78;;;;;;;5.95;70.48;100799.16;10440897;28;20111;-73
2021/11/06 20:44:04;;;;;;;7.95;7.10;;;;;;;5.77;71.53;100791.31;10459132;28;20053;-73
2021/11/06 20:49:07;;;;;;;7.13;5.88;;;;;;;5.89;70.71;100787.81;10458186;28;20129;-73
2021/11/06 20:54:08;;;;;;;6.38;5.78;;;;;;;5.82;70.78;100780.00;10458452;28;20045;-74
2021/11/06 20:59:14;;;;;;;7.43;6.85;;;;;;;5.56;72.13;100766.94;10440362;28;20059;-73
2021/11/06 21:04:16;;;;;;;7.45;6.82;;;;;;;5.50;72.38;100771.31;10459217;28;20045;-72
2021/11/06 21:09:22;;;;;;;7.68;7.07;;;;;;;5.47;72.51;100758.25;10458177;28;20111;-73
2021/11/06 21:19:27;;;;;;;7.65;7.05;;;;;;;4.97;74.55;100752.09;10458562;28;20040;-73
2021/11/06 21:24:34;;;;;;;8.88;7.72;;;;;;;4.83;75.41;100761.63;10458401;28;20045;-72
2021/11/06 21:29:37;;;;;;;10.30;9.40;;;;;;;4.57;76.75;100753.72;10457876;28;20045;-73
2021/11/06 21:34:43;;;;;;;10.70;9.82;;;;;;;4.45;77.33;100746.72;10457890;28;20040;-72
2021/11/06 21:39:50;;;;;;;9.45;8.68;;;;;;;4.52;77.27;100735.47;10440398;28;20048;-72
2021/11/06 21:44:52;;;;;;;9.57;8.88;;;;;;;4.36;77.77;100725.84;10458310;28;20037;-71
2021/11/06 21:49:55;;;;;;;9.30;8.63;;;;;;;4.21;78.46;100726.66;10457974;28;20037;-72
2021/11/06 21:54:57;;;;;;;9.80;8.90;;;;;;;4.26;78.25;100714.53;10456746;28;20052;-73
2021/11/06 21:59:59;;;;;;;8.93;8.13;;;;;;;4.20;78.68;100717.06;10456423;28;20110;-72
2021/11/06 22:05:02;;;;;;;9.20;8.20;;;;;;;4.22;79.05;100711.91;10456231;28;20049;-72
2021/11/06 22:10:05;;;;;;;9.25;8.55;;;;;;;4.30;78.15;100703.28;10456011;28;20106;-72
2021/11/06 22:15:08;;;;;;;10.18;9.27;;;;;;;3.94;78.97;100695.25;10456358;28;20045;-73
2021/11/06 22:20:12;;;;;;;9.60;8.80;;;;;;;3.76;79.86;100691.72;10456592;28;20065;-73
2021/11/06 22:25:13;;;;;;;8.90;8.10;;;;;;;3.79;80.12;100691.72;10456298;28;20045;-72
2021/11/06 22:30:15;;;;;;;9.20;8.45;;;;;;;3.98;79.72;100682.28;10445835;28;20495;-72
2021/11/06 22:35:18;;;;;;;9.00;8.18;;;;;;;3.61;80.32;100680.31;10464779;28;20487;-72
2021/11/06 22:40:20;;;;;;;9.85;8.95;;;;;;;3.50;80.98;100675.06;10464833;28;20057;-71
2021/11/06 22:45:23;;;;;;;8.95;8.07;;;;;;;3.49;81.54;100668.09;10446018;28;20048;-72
2021/11/06 22:50:26;;;;;;;8.82;8.13;;;;;;;3.49;81.40;100657.72;10445434;28;20095;-72
2021/11/06 22:55:29;;;;;;;9.57;8.68;;;;;;;3.49;81.42;100650.78;10445380;28;20341;-73
2021/11/06 23:00:53;;;;;;;8.88;8.10;;;;;;;3.59;80.88;100636.13;10445222;28;20041;-72
2021/11/06 23:05:56;;;;;;;8.35;7.75;;;;;;;3.70;81.11;100636.19;10463079;28;20045;-72
2021/11/06 23:10:59;;;;;;;8.70;8.00;;;;;;;3.58;81.06;100616.16;10462530;28;20620;-72
2021/11/06 23:16:01;;;;;;;7.50;6.90;;;;;;;3.93;79.61;100603.34;10462540;28;20049;-72
2021/11/06 23:21:04;;;;;;;5.75;5.25;;;;;;;4.34;77.24;100600.06;10444947;28;20045;-72
2021/11/06 23:26:09;;;;;;;5.40;4.90;;;;;;;4.90;74.83;100586.22;10462761;28;20052;-72
2021/11/06 23:31:12;;;;;;;6.07;5.53;;;;;;;4.86;74.52;100575.81;10474780;22;20470;-73
2021/11/06 23:36:13;;;;;;;6.65;4.75;;;;;;;4.89;73.61;100566.25;10461006;28;20080;-73